createdAt,value
2022-08-09T00:01:15.374Z,17.90
2022-08-09T00:04:00.712Z,17.90
2022-08-09T00:06:32.084Z,17.80
2022-08-09T00:09:00.805Z,17.80
2022-08-09T00:12:02.634Z,17.80
2022-08-09T00:14:21.979Z,17.70
2022-08-09T00:16:57.573Z,17.70
2022-08-09T00:19:24.661Z,17.70
2022-08-09T00:21:56.748Z,17.70
2022-08-09T00:24:27.410Z,17.60
2022-08-09T00:26:54.966Z,17.60
2022-08-09T00:29:39.846Z,17.60
2022-08-09T00:32:12.645Z,17.60
2022-08-09T00:34:40.031Z,17.50
2022-08-09T00:37:19.097Z,17.50
2022-08-09T00:40:12.060Z,17.40
2022-08-09T00:44:16.376Z,17.40
2022-08-09T00:45:21.141Z,17.30
2022-08-09T00:47:48.387Z,17.30
2022-08-09T00:50:15.559Z,17.30
2022-08-09T00:52:43.072Z,17.30
2022-08-09T00:55:16.674Z,17.20
2022-08-09T00:57:59.333Z,17.20
2022-08-09T01:00:27.976Z,17.10
2022-08-09T01:03:17.903Z,17.10
2022-08-09T01:06:18.171Z,17.10
2022-08-09T01:09:24.703Z,17.10
2022-08-09T01:12:34.134Z,17.00
2022-08-09T01:15:16.639Z,17.00
2022-08-09T01:18:05.192Z,17.00
2022-08-09T01:20:53.468Z,17.00
2022-08-09T01:24:02.043Z,17.00
2022-08-09T01:27:01.086Z,16.90
2022-08-09T01:29:41.135Z,16.90
2022-08-09T01:32:39.193Z,16.90
2022-08-09T01:35:37.518Z,16.90
2022-08-09T01:38:15.175Z,16.90
2022-08-09T01:41:15.148Z,16.80
2022-08-09T01:43:50.355Z,16.80
2022-08-09T01:46:40.713Z,16.80
2022-08-09T01:49:18.650Z,16.80
2022-08-09T01:52:07.117Z,16.70
2022-08-09T01:54:43.941Z,16.70
2022-08-09T01:57:21.793Z,16.70
2022-08-09T01:59:52.603Z,16.70
2022-08-09T02:02:31.125Z,16.60
2022-08-09T02:05:15.761Z,16.60
2022-08-09T02:08:41.014Z,16.60
2022-08-09T02:10:51.202Z,16.60
2022-08-09T02:13:26.166Z,16.60
2022-08-09T02:16:08.053Z,16.60
2022-08-09T02:18:38.508Z,16.60
2022-08-09T02:21:17.051Z,16.50
2022-08-09T02:23:54.428Z,16.50
2022-08-09T02:26:25.117Z,16.50
2022-08-09T02:29:00.495Z,16.50
2022-08-09T02:31:39.572Z,16.50
2022-08-09T02:34:40.779Z,16.40
2022-08-09T02:37:11.984Z,16.40
2022-08-09T02:39:49.888Z,16.40
2022-08-09T02:42:35.905Z,16.40
2022-08-09T02:45:11.108Z,16.30
2022-08-09T02:47:57.744Z,16.30
2022-08-09T02:50:43.960Z,16.20
2022-08-09T02:53:28.070Z,16.10
2022-08-09T02:55:59.483Z,16.10
2022-08-09T02:58:35.807Z,16.00
2022-08-09T03:01:08.220Z,15.90
2022-08-09T03:04:17.415Z,15.90
2022-08-09T03:06:29.368Z,15.80
2022-08-09T03:08:59.158Z,15.80
2022-08-09T03:11:29.894Z,15.70
2022-08-09T03:14:17.222Z,15.70
2022-08-09T03:16:48.030Z,15.70
2022-08-09T03:19:58.854Z,15.60
2022-08-09T03:22:11.827Z,15.50
2022-08-09T03:24:52.436Z,15.50
2022-08-09T03:27:27.596Z,15.40
2022-08-09T03:30:05.392Z,15.30
2022-08-09T03:32:36.963Z,15.30
2022-08-09T03:35:15.100Z,15.30
2022-08-09T03:37:56.239Z,15.20
2022-08-09T03:40:25.346Z,15.10
2022-08-09T03:42:58.161Z,15.10
2022-08-09T03:46:04.787Z,15.00
2022-08-09T03:48:12.396Z,15.00
2022-08-09T03:50:47.597Z,14.90
2022-08-09T03:53:17.391Z,14.90
2022-08-09T03:55:48.814Z,14.90
2022-08-09T03:58:21.232Z,14.90
2022-08-09T04:00:50.116Z,14.90
2022-08-09T04:03:24.973Z,14.90
2022-08-09T04:06:06.861Z,15.00
2022-08-09T04:08:34.673Z,15.00
2022-08-09T04:11:02.038Z,15.20
2022-08-09T04:14:37.670Z,15.10
2022-08-09T04:16:20.217Z,15.20
2022-08-09T04:18:50.915Z,15.30
2022-08-09T04:21:19.520Z,15.30
2022-08-09T04:23:53.891Z,15.30
2022-08-09T04:26:24.783Z,15.30
2022-08-09T04:29:07.847Z,15.40
2022-08-09T04:31:47.131Z,15.50
2022-08-09T04:34:19.100Z,15.50
2022-08-09T04:36:58.135Z,15.60
2022-08-09T04:39:25.536Z,15.70
2022-08-09T04:41:59.765Z,15.70
2022-08-09T04:44:30.069Z,15.80
2022-08-09T04:47:04.514Z,15.90
2022-08-09T04:49:52.709Z,16.00
2022-08-09T04:52:28.406Z,16.10
2022-08-09T04:54:59.713Z,16.20
2022-08-09T04:57:58.367Z,16.30
2022-08-09T05:00:16.880Z,16.40
2022-08-09T05:02:44.382Z,16.50
2022-08-09T05:05:31.737Z,16.60
2022-08-09T05:08:06.181Z,16.70
2022-08-09T05:10:34.417Z,16.80
2022-08-09T05:13:04.221Z,16.90
2022-08-09T05:15:39.183Z,17.00
2022-08-09T05:18:38.519Z,17.10
2022-08-09T05:20:57.941Z,17.20
2022-08-09T05:23:51.121Z,17.40
2022-08-09T05:26:16.128Z,17.50
2022-08-09T05:28:59.522Z,17.60
2022-08-09T05:31:44.443Z,17.70
2022-08-09T05:34:17.558Z,17.80
2022-08-09T05:36:46.873Z,18.00
2022-08-09T05:39:28.903Z,18.10
2022-08-09T05:42:01.756Z,18.20
2022-08-09T05:44:34.835Z,18.40
2022-08-09T05:47:04.921Z,18.50
2022-08-09T05:50:16.841Z,18.60
2022-08-09T05:52:21.986Z,18.70
2022-08-09T05:54:52.314Z,18.80
2022-08-09T05:57:19.581Z,18.90
2022-08-09T05:59:52.438Z,19.00
2022-08-09T06:02:20.147Z,19.10
2022-08-09T06:04:49.016Z,19.20
2022-08-09T06:07:21.339Z,19.20
2022-08-09T06:10:01.406Z,19.30
2022-08-09T06:12:30.285Z,19.40
2022-08-09T06:15:01.056Z,19.40
2022-08-09T06:17:40.425Z,19.50
2022-08-09T06:20:09.305Z,19.60
2022-08-09T06:22:37.135Z,19.70
2022-08-09T06:25:08.741Z,19.90
2022-08-09T06:27:42.329Z,20.00
2022-08-09T06:30:14.275Z,20.10
2022-08-09T06:32:59.134Z,20.20
2022-08-09T06:35:55.899Z,20.30
2022-08-09T06:38:19.640Z,20.40
2022-08-09T06:40:59.225Z,20.50
2022-08-09T06:43:27.357Z,20.60
2022-08-09T06:46:05.989Z,20.80
2022-08-09T06:48:42.659Z,20.90
2022-08-09T06:51:14.772Z,21.00
2022-08-09T06:53:42.373Z,21.10
2022-08-09T06:56:10.841Z,21.30
2022-08-09T07:00:48.935Z,21.30
2022-08-09T07:01:27.423Z,21.50
2022-08-09T07:04:03.728Z,21.60
2022-08-09T07:06:31.304Z,21.70
2022-08-09T07:08:58.932Z,21.90
2022-08-09T07:11:27.404Z,22.00
2022-08-09T07:14:26.404Z,22.10
2022-08-09T07:16:58.049Z,22.20
2022-08-09T07:19:25.643Z,22.30
2022-08-09T07:21:57.913Z,22.40
2022-08-09T07:24:32.861Z,22.50
2022-08-09T07:27:33.176Z,22.60
2022-08-09T07:30:03.112Z,22.60
2022-08-09T07:32:33.415Z,22.70
2022-08-09T07:35:10.613Z,22.90
2022-08-09T07:37:44.447Z,22.90
2022-08-09T07:40:20.051Z,23.00
2022-08-09T07:42:58.596Z,23.10
2022-08-09T07:45:40.257Z,23.20
2022-08-09T07:48:25.544Z,23.30
2022-08-09T07:51:10.262Z,23.40
2022-08-09T07:54:05.263Z,23.50
2022-08-09T07:56:36.865Z,23.60
2022-08-09T07:59:16.085Z,23.70
2022-08-09T08:01:56.046Z,23.80
2022-08-09T08:04:31.184Z,23.90
2022-08-09T08:07:09.588Z,24.00
2022-08-09T08:09:53.414Z,24.10
2022-08-09T08:12:27.814Z,24.30
2022-08-09T08:15:05.588Z,24.40
2022-08-09T08:17:52.902Z,24.50
2022-08-09T08:20:29.336Z,24.60
2022-08-09T08:23:01.783Z,24.80
2022-08-09T08:25:43.955Z,24.90
2022-08-09T08:28:15.075Z,24.90
2022-08-09T08:30:44.797Z,25.10
2022-08-09T08:33:23.883Z,25.20
2022-08-09T08:36:00.292Z,25.40
2022-08-09T08:38:31.399Z,25.50
2022-08-09T08:40:59.414Z,25.60
2022-08-09T08:43:28.157Z,25.70
2022-08-09T08:46:32.966Z,25.70
2022-08-09T08:48:53.536Z,25.80
2022-08-09T08:51:24.809Z,26.00
2022-08-09T08:54:03.069Z,26.10
2022-08-09T08:56:35.676Z,26.20
2022-08-09T08:59:19.649Z,26.40
2022-08-09T09:01:52.854Z,26.50
2022-08-09T09:04:31.151Z,26.50
2022-08-09T09:07:03.410Z,26.50
2022-08-09T09:09:58.668Z,26.50
2022-08-09T09:12:26.744Z,26.40
2022-08-09T09:14:59.578Z,26.30
2022-08-09T09:17:48.468Z,26.30
2022-08-09T09:20:15.782Z,26.20
2022-08-09T09:23:01.974Z,26.20
2022-08-09T09:26:00.985Z,26.20
2022-08-09T09:29:02.311Z,26.30
2022-08-09T09:32:06.475Z,26.40
2022-08-09T09:34:18.581Z,26.60
2022-08-09T09:36:53.782Z,26.80
2022-08-09T09:39:54.510Z,27.00
2022-08-09T09:42:27.911Z,27.10
2022-08-09T09:45:08.175Z,27.20
2022-08-09T09:47:47.662Z,27.30
2022-08-09T09:50:50.909Z,27.30
2022-08-09T09:53:43.720Z,27.30
2022-08-09T09:56:20.002Z,27.20
2022-08-09T09:58:57.791Z,27.20
2022-08-09T10:01:37.257Z,27.10
2022-08-09T10:04:22.862Z,27.00
2022-08-09T10:06:58.121Z,26.80
2022-08-09T10:09:25.849Z,26.70
2022-08-09T10:12:14.289Z,26.60
2022-08-09T10:14:48.505Z,26.50
2022-08-09T10:17:54.984Z,26.50
2022-08-09T10:20:14.883Z,26.50
2022-08-09T10:22:43.037Z,26.40
2022-08-09T10:25:14.695Z,26.30
2022-08-09T10:27:57.149Z,26.30
2022-08-09T10:33:29.766Z,26.20
2022-08-09T10:36:11.538Z,26.20
2022-08-09T10:38:56.122Z,26.20
2022-08-09T10:41:25.047Z,26.30
2022-08-09T10:43:59.634Z,26.30
2022-08-09T10:46:55.164Z,26.40
2022-08-09T10:50:06.681Z,26.50
2022-08-09T10:53:04.930Z,26.70
2022-08-09T10:55:55.668Z,26.90
2022-08-09T10:58:34.740Z,27.10
2022-08-09T11:03:02.559Z,27.40
2022-08-09T11:04:28.341Z,27.60
2022-08-09T11:07:00.030Z,27.80
2022-08-09T11:09:47.883Z,28.00
2022-08-09T11:12:26.649Z,28.10
2022-08-09T11:15:15.424Z,28.30
2022-08-09T11:17:53.260Z,28.40
2022-08-09T11:20:47.444Z,28.60
2022-08-09T11:23:17.053Z,28.80
2022-08-09T11:25:51.169Z,29.00
2022-08-09T11:28:56.154Z,29.20
2022-08-09T11:31:49.617Z,29.40
2022-08-09T11:34:28.183Z,29.70
2022-08-09T11:36:58.822Z,30.00
2022-08-09T11:39:33.553Z,30.10
2022-08-09T11:42:09.141Z,30.20
2022-08-09T11:44:45.813Z,30.30
2022-08-09T11:47:14.402Z,30.30
2022-08-09T11:50:56.053Z,30.30
2022-08-09T11:53:28.237Z,30.40
2022-08-09T11:55:52.667Z,30.50
2022-08-09T11:58:30.350Z,30.50
2022-08-09T12:01:08.325Z,30.50
2022-08-09T12:03:55.257Z,30.60
2022-08-09T12:06:32.705Z,30.80
2022-08-09T12:09:19.351Z,30.80
2022-08-09T12:12:05.994Z,30.90
2022-08-09T12:15:07.302Z,30.90
2022-08-09T12:17:42.330Z,30.80
2022-08-09T12:20:25.444Z,30.90
2022-08-09T12:23:04.709Z,31.00
2022-08-09T12:25:37.349Z,31.10
2022-08-09T12:29:13.271Z,31.20
2022-08-09T12:31:58.029Z,31.20
2022-08-09T12:34:14.492Z,31.20
2022-08-09T12:36:53.087Z,31.20
2022-08-09T12:39:26.694Z,31.10
2022-08-09T12:41:54.891Z,31.20
2022-08-09T12:44:24.344Z,31.20
2022-08-09T12:46:52.143Z,31.50
2022-08-09T12:49:21.698Z,31.90
2022-08-09T12:52:00.986Z,32.60
2022-08-09T12:54:29.227Z,33.50
2022-08-09T12:56:59.159Z,34.40
2022-08-09T12:59:57.958Z,35.10
2022-08-09T13:02:19.951Z,35.50
2022-08-09T13:05:02.328Z,35.70
2022-08-09T13:07:51.102Z,35.50
2022-08-09T13:10:17.565Z,35.20
2022-08-09T13:13:08.736Z,34.80
2022-08-09T13:15:36.243Z,34.50
2022-08-09T13:18:09.785Z,34.00
2022-08-09T13:21:04.101Z,33.80
2022-08-09T13:24:17.050Z,33.80
2022-08-09T13:26:42.589Z,34.10
2022-08-09T13:29:28.587Z,34.30
2022-08-09T13:32:19.577Z,34.50
2022-08-09T13:34:56.206Z,34.40
2022-08-09T13:37:51.090Z,34.30
2022-08-09T13:41:51.582Z,34.10
2022-08-09T13:42:59.740Z,33.90
2022-08-09T13:45:32.136Z,33.60
2022-08-09T13:48:18.111Z,33.30
2022-08-09T13:50:46.072Z,33.10
2022-08-09T13:53:16.786Z,32.90
2022-08-09T13:55:44.875Z,32.80
2022-08-09T13:58:15.409Z,32.70
2022-08-09T14:00:50.369Z,32.70
2022-08-09T14:04:03.390Z,32.80
2022-08-09T14:06:19.419Z,32.90
2022-08-09T14:08:54.305Z,33.00
2022-08-09T14:11:23.145Z,33.20
2022-08-09T14:14:23.421Z,33.40
2022-08-09T14:16:37.761Z,33.60
2022-08-09T14:19:07.593Z,33.80
2022-08-09T14:21:34.551Z,34.00
2022-08-09T14:24:10.187Z,34.20
2022-08-09T14:26:38.024Z,34.30
2022-08-09T14:29:25.439Z,34.30
2022-08-09T14:31:56.410Z,34.20
2022-08-09T14:34:31.761Z,34.30
2022-08-09T14:37:08.103Z,34.40
2022-08-09T14:39:46.776Z,34.60
2022-08-09T14:42:40.577Z,34.90
2022-08-09T14:46:39.706Z,35.40
2022-08-09T14:48:00.379Z,35.90
2022-08-09T14:50:35.291Z,36.50
2022-08-09T14:53:11.475Z,36.70
2022-08-09T14:55:48.108Z,36.70
2022-08-09T14:58:18.422Z,36.40
2022-08-09T15:00:48.163Z,36.10
2022-08-09T15:03:20.421Z,35.70
2022-08-09T15:05:49.570Z,35.40
2022-08-09T15:08:20.204Z,35.00
2022-08-09T15:11:00.380Z,34.70
2022-08-09T15:13:29.943Z,34.40
2022-08-09T15:16:17.146Z,34.10
2022-08-09T15:18:44.462Z,33.80
2022-08-09T15:21:55.327Z,33.60
2022-08-09T15:24:11.451Z,33.40
2022-08-09T15:26:46.073Z,33.20
2022-08-09T15:30:55.646Z,33.10
2022-08-09T15:32:01.583Z,33.00
2022-08-09T15:34:34.324Z,32.90
2022-08-09T15:37:23.625Z,32.90
2022-08-09T15:39:53.874Z,32.80
2022-08-09T15:42:22.051Z,32.60
2022-08-09T15:44:50.212Z,32.50
2022-08-09T15:47:22.343Z,32.30
2022-08-09T15:50:03.641Z,32.20
2022-08-09T15:52:37.118Z,32.00
2022-08-09T15:55:07.820Z,31.90
2022-08-09T15:57:44.477Z,31.70
2022-08-09T16:00:25.193Z,31.60
2022-08-09T16:02:56.810Z,31.50
2022-08-09T16:05:47.096Z,31.50
2022-08-09T16:08:31.018Z,31.50
2022-08-09T16:11:01.430Z,31.60
2022-08-09T16:14:05.239Z,31.70
2022-08-09T16:16:18.804Z,31.80
2022-08-09T16:18:47.559Z,31.90
2022-08-09T16:21:17.558Z,31.90
2022-08-09T16:24:02.176Z,31.90
2022-08-09T16:26:35.683Z,32.00
2022-08-09T16:29:11.191Z,32.10
2022-08-09T16:32:18.667Z,32.10
2022-08-09T16:34:56.060Z,32.10
2022-08-09T16:37:50.551Z,32.10
2022-08-09T16:40:10.431Z,32.00
2022-08-09T16:42:39.378Z,32.00
2022-08-09T16:45:17.398Z,31.90
2022-08-09T16:48:41.445Z,31.90
2022-08-09T16:50:38.160Z,32.00
2022-08-09T16:53:06.486Z,32.20
2022-08-09T16:55:58.592Z,32.40
2022-08-09T16:58:23.242Z,32.60
2022-08-09T17:00:51.032Z,32.70
2022-08-09T17:03:22.666Z,32.70
2022-08-09T17:06:08.549Z,32.60
2022-08-09T17:09:04.883Z,32.50
2022-08-09T17:11:39.985Z,32.20
2022-08-09T17:14:26.017Z,31.80
2022-08-09T17:17:02.278Z,31.60
2022-08-09T17:19:47.348Z,31.20
2022-08-09T17:22:24.163Z,30.90
2022-08-09T17:25:02.762Z,30.50
2022-08-09T17:27:30.350Z,30.20
2022-08-09T17:29:58.258Z,29.90
2022-08-09T17:32:34.797Z,29.60
2022-08-09T17:35:12.251Z,29.30
2022-08-09T17:38:02.151Z,29.00
2022-08-09T17:40:30.377Z,28.80
2022-08-09T17:43:11.141Z,28.50
2022-08-09T17:46:03.040Z,28.20
2022-08-09T17:48:33.288Z,28.10
2022-08-09T17:51:09.553Z,27.90
2022-08-09T17:53:48.112Z,27.70
2022-08-09T17:56:27.757Z,27.60
2022-08-09T17:59:02.948Z,27.40
2022-08-09T18:02:03.295Z,27.30
2022-08-09T18:04:20.200Z,27.10
2022-08-09T18:06:49.778Z,26.90
2022-08-09T18:09:24.309Z,26.80
2022-08-09T18:12:05.258Z,26.70
2022-08-09T18:14:49.767Z,26.50
2022-08-09T18:17:27.161Z,26.40
2022-08-09T18:20:57.012Z,26.20
2022-08-09T18:22:54.443Z,26.10
2022-08-09T18:25:21.499Z,25.90
2022-08-09T18:28:21.675Z,25.70
2022-08-09T18:30:59.976Z,25.60
2022-08-09T18:33:28.389Z,25.40
2022-08-09T18:35:58.971Z,25.30
2022-08-09T18:38:28.061Z,25.10
2022-08-09T18:40:57.846Z,25.00
2022-08-09T18:43:25.028Z,24.80
2022-08-09T18:46:49.152Z,24.70
2022-08-09T18:48:42.373Z,24.60
2022-08-09T18:51:10.154Z,24.40
2022-08-09T18:54:01.905Z,24.30
2022-08-09T18:56:27.929Z,24.10
2022-08-09T18:58:57.128Z,24.00
2022-08-09T19:01:25.653Z,23.80
2022-08-09T19:04:06.390Z,23.70
2022-08-09T19:06:38.664Z,23.60
2022-08-09T19:09:07.955Z,23.50
2022-08-09T19:11:41.767Z,23.40
2022-08-09T19:14:08.897Z,23.30
2022-08-09T19:16:37.947Z,23.20
2022-08-09T19:19:21.311Z,23.10
2022-08-09T19:22:06.557Z,23.00
2022-08-09T19:25:11.443Z,23.00
2022-08-09T19:27:28.533Z,22.90
2022-08-09T19:30:24.670Z,22.90
2022-08-09T19:32:44.279Z,22.70
2022-08-09T19:35:11.665Z,22.70
2022-08-09T19:37:52.762Z,22.60
2022-08-09T19:40:24.072Z,22.50
2022-08-09T19:43:05.286Z,22.40
2022-08-09T19:45:40.455Z,22.30
2022-08-09T19:48:10.942Z,22.20
2022-08-09T19:50:51.202Z,22.10
2022-08-09T19:53:21.647Z,22.00
2022-08-09T19:56:02.765Z,21.90
2022-08-09T19:58:34.635Z,21.80
2022-08-09T20:01:02.338Z,21.70
2022-08-09T20:04:09.596Z,21.60
2022-08-09T20:06:23.703Z,21.50
2022-08-09T20:08:59.401Z,21.40
2022-08-09T20:11:43.381Z,21.40
2022-08-09T20:14:16.552Z,21.20
2022-08-09T20:16:53.742Z,21.20
2022-08-09T20:19:48.901Z,21.10
2022-08-09T20:22:14.161Z,21.00
2022-08-09T20:24:43.092Z,20.90
2022-08-09T20:27:21.738Z,20.80
2022-08-09T20:29:49.573Z,20.80
2022-08-09T20:32:30.442Z,20.70
2022-08-09T20:35:01.772Z,20.60
2022-08-09T20:38:18.782Z,20.60
2022-08-09T20:40:26.225Z,20.50
2022-08-09T20:42:59.364Z,20.40
2022-08-09T20:45:59.497Z,20.40
2022-08-09T20:48:21.213Z,20.30
2022-08-09T20:50:55.713Z,20.30
2022-08-09T20:53:37.318Z,20.20
2022-08-09T20:56:08.814Z,20.10
2022-08-09T20:58:36.584Z,20.10
2022-08-09T21:01:32.303Z,20.00
2022-08-09T21:05:48.407Z,20.00
2022-08-09T21:06:44.462Z,19.90
2022-08-09T21:09:14.176Z,19.80
2022-08-09T21:14:31.666Z,19.70
2022-08-09T21:17:00.342Z,19.70
2022-08-09T21:20:17.399Z,19.60
2022-08-09T21:22:23.118Z,19.50
2022-08-09T21:25:21.240Z,19.50
2022-08-09T21:27:50.883Z,19.40
2022-08-09T21:30:29.263Z,19.40
2022-08-09T21:32:57.229Z,19.30
2022-08-09T21:35:24.699Z,19.30
2022-08-09T21:37:59.697Z,19.30
2022-08-09T21:40:30.629Z,19.20
2022-08-09T21:43:00.759Z,19.20
2022-08-09T21:45:28.204Z,19.10
2022-08-09T21:47:55.751Z,19.10
2022-08-09T21:50:33.889Z,19.10
2022-08-09T21:53:19.974Z,19.00
2022-08-09T21:55:55.424Z,19.00
2022-08-09T21:58:30.954Z,18.90
2022-08-09T22:00:58.483Z,18.90
2022-08-09T22:03:26.323Z,18.80
2022-08-09T22:05:57.966Z,18.80
2022-08-09T22:08:26.252Z,18.80
2022-08-09T22:11:01.013Z,18.80
2022-08-09T22:13:43.884Z,18.80
2022-08-09T22:16:12.004Z,18.70
2022-08-09T22:18:53.198Z,18.60
2022-08-09T22:21:45.286Z,18.60
2022-08-09T22:24:17.103Z,18.50
2022-08-09T22:26:51.069Z,18.50
2022-08-09T22:29:19.749Z,18.50
2022-08-09T22:31:56.654Z,18.50
2022-08-09T22:34:26.687Z,18.40
2022-08-09T22:36:58.778Z,18.40
2022-08-09T22:39:56.160Z,18.30
2022-08-09T22:42:21.276Z,18.30
2022-08-09T22:48:04.506Z,18.30
2022-08-09T22:48:14.811Z,18.20
2022-08-09T22:50:29.483Z,18.20
2022-08-09T22:52:58.322Z,18.10
2022-08-09T22:55:39.605Z,18.10
2022-08-09T22:58:20.154Z,18.10
2022-08-09T23:01:05.662Z,18.10
2022-08-09T23:04:04.160Z,18.10
2022-08-09T23:06:35.248Z,18.00
2022-08-09T23:09:06.962Z,18.00
2022-08-09T23:11:34.561Z,18.00
2022-08-09T23:14:03.830Z,17.90
2022-08-09T23:16:31.776Z,17.90
2022-08-09T23:18:58.931Z,17.90
2022-08-09T23:21:31.300Z,17.80
2022-08-09T23:24:06.490Z,17.90
2022-08-09T23:26:39.521Z,17.80
2022-08-09T23:29:11.306Z,17.80
2022-08-09T23:31:38.449Z,17.80
2022-08-09T23:34:05.712Z,17.80
2022-08-09T23:36:34.876Z,17.80
2022-08-09T23:39:04.410Z,17.80
2022-08-09T23:41:31.605Z,17.70
2022-08-09T23:44:01.045Z,17.70
2022-08-09T23:46:30.269Z,17.70
2022-08-09T23:48:59.147Z,17.70
2022-08-09T23:51:27.034Z,17.60
2022-08-09T23:54:03.278Z,17.60
2022-08-09T23:56:52.508Z,17.60
2022-08-09T23:59:20.464Z,17.60
